Time;durP1;ratioP1;P1;durP2;ratioP2;P2;SDS_P1;SDS_P2;PMS_P1;PMS_P2;Temp;Humidity;BMP_temperature;BMP_pressure;BME280_temperature;BME280_humidity;BME280_pressure;Samples;Min_cycle;Max_cycle;Signal;HPM_P1;HPM_P2
2021/08/04 00:01:10;;;;;;;30.67;10.45;;;;;;;;;;5096149;28;20410;-74
2021/08/04 00:03:35;;;;;;;29.83;10.18;;;;;;;;;;5095668;28;20055;-74
2021/08/04 00:06:01;;;;;;;31.73;10.55;;;;;;;;;;5095814;28;20506;-74
2021/08/04 00:08:26;;;;;;;29.45;10.02;;;;;;;;;;5095748;28;20035;-74
2021/08/04 00:10:51;;;;;;;25.13;9.38;;;;;;;;;;5095673;28;20023;-74
2021/08/04 00:13:17;;;;;;;27.80;10.57;;;;;;;;;;5094540;28;20016;-74
2021/08/04 00:15:42;;;;;;;28.05;10.00;;;;;;;;;;5095638;28;20119;-74
2021/08/04 00:18:07;;;;;;;21.52;9.63;;;;;;;;;;5094467;28;20065;-74
2021/08/04 00:20:33;;;;;;;23.90;9.05;;;;;;;;;;5095590;28;20123;-74
2021/08/04 00:22:58;;;;;;;27.13;9.18;;;;;;;;;;5095440;28;20538;-74
2021/08/04 00:25:23;;;;;;;25.60;9.75;;;;;;;;;;5094890;28;20036;-74
2021/08/04 00:27:50;;;;;;;25.65;9.93;;;;;;;;;;5095473;28;20048;-74
2021/08/04 00:30:15;;;;;;;26.30;9.55;;;;;;;;;;5095477;28;20043;-74
2021/08/04 00:32:40;;;;;;;23.70;9.77;;;;;;;;;;5093227;28;20028;-75
2021/08/04 00:35:06;;;;;;;23.00;8.68;;;;;;;;;;5093963;28;20097;-74
2021/08/04 00:37:31;;;;;;;26.63;9.07;;;;;;;;;;5094959;28;20415;-75
2021/08/04 00:39:56;;;;;;;27.63;10.10;;;;;;;;;;5094872;28;20020;-74
2021/08/04 00:42:22;;;;;;;29.58;9.23;;;;;;;;;;5094881;28;20020;-74
2021/08/04 00:44:47;;;;;;;26.38;9.45;;;;;;;;;;5095016;28;20389;-74
2021/08/04 00:47:13;;;;;;;22.45;9.18;;;;;;;;;;5095361;28;20020;-74
2021/08/04 00:49:38;;;;;;;26.98;9.52;;;;;;;;;;5095045;28;20024;-74
2021/08/04 00:52:04;;;;;;;25.20;9.15;;;;;;;;;;5095081;28;20069;-74
2021/08/04 00:54:29;;;;;;;29.92;10.60;;;;;;;;;;5094691;28;20016;-74
2021/08/04 00:56:54;;;;;;;27.08;9.45;;;;;;;;;;5094858;28;20099;-74
2021/08/04 00:59:20;;;;;;;26.90;8.68;;;;;;;;;;5094821;28;20027;-74
2021/08/04 01:02:14;;;;;;;24.92;9.35;;;;;;;;;;5094758;28;20016;-74
2021/08/04 01:04:45;;;;;;;27.83;9.95;;;;;;;;;;5021780;28;20050;-74
2021/08/04 01:07:29;;;;;;;27.48;9.18;;;;;;;;;;5094551;28;20035;-74
2021/08/04 01:10:00;;;;;;;33.22;10.05;;;;;;;;;;5094534;28;20043;-74
2021/08/04 01:12:29;;;;;;;35.25;10.02;;;;;;;;;;5094689;28;20032;-74
2021/08/04 01:15:00;;;;;;;1283.80;363.85;;;;;;;;;;5094527;28;20085;-74
2021/08/04 01:17:25;;;;;;;24.85;8.50;;;;;;;;;;5094091;28;20036;-74
2021/08/04 01:20:23;;;;;;;13.70;5.28;;;;;;;;;;5093221;28;20016;-74
2021/08/04 01:23:02;;;;;;;13.20;4.88;;;;;;;;;;5049118;28;20420;-74
2021/08/04 01:25:50;;;;;;;12.88;4.80;;;;;;;;;;5094154;28;20048;-74
2021/08/04 01:28:19;;;;;;;8.45;3.97;;;;;;;;;;5055224;28;20119;-75
2021/08/04 01:30:45;;;;;;;10.50;4.30;;;;;;;;;;5094475;28;20038;-74
2021/08/04 01:33:11;;;;;;;15.73;5.13;;;;;;;;;;5092789;28;20376;-74
2021/08/04 01:35:37;;;;;;;10.82;4.53;;;;;;;;;;5093976;28;20036;-75
2021/08/04 01:38:02;;;;;;;9.80;4.05;;;;;;;;;;5093845;28;20111;-74
2021/08/04 01:40:27;;;;;;;14.18;4.75;;;;;;;;;;5093944;28;20020;-74
2021/08/04 01:42:53;;;;;;;9.48;4.10;;;;;;;;;;5093550;28;20028;-74
2021/08/04 01:45:19;;;;;;;21.48;8.75;;;;;;;;;;5093434;28;20035;-74
2021/08/04 01:47:44;;;;;;;16.70;7.63;;;;;;;;;;5093968;28;20046;-74
2021/08/04 01:50:10;;;;;;;21.00;8.05;;;;;;;;;;5093863;28;20024;-76
2021/08/04 01:52:36;;;;;;;23.90;9.05;;;;;;;;;;5093574;28;20455;-74
2021/08/04 01:55:02;;;;;;;18.23;8.00;;;;;;;;;;5093976;28;20012;-74
2021/08/04 01:57:27;;;;;;;168.93;44.25;;;;;;;;;;5093287;28;20036;-74
2021/08/04 01:59:53;;;;;;;8.93;4.38;;;;;;;;;;5093590;28;20035;-74
2021/08/04 02:02:22;;;;;;;7.95;4.05;;;;;;;;;;5093354;28;20111;-74
2021/08/04 02:04:48;;;;;;;8.73;4.00;;;;;;;;;;5093522;28;20127;-74
2021/08/04 02:07:36;;;;;;;8.38;4.15;;;;;;;;;;5093554;28;20039;-74
2021/08/04 02:10:03;;;;;;;8.38;4.28;;;;;;;;;;5093396;28;20111;-74
2021/08/04 02:12:29;;;;;;;9.98;3.80;;;;;;;;;;5093421;28;20028;-74
2021/08/04 02:15:03;;;;;;;9.52;4.50;;;;;;;;;;5093275;28;20031;-75
2021/08/04 02:17:34;;;;;;;11.93;3.83;;;;;;;;;;5093420;28;20028;-74
2021/08/04 02:20:12;;;;;;;8.48;3.97;;;;;;;;;;5093283;28;20028;-74
2021/08/04 02:22:53;;;;;;;8.38;3.55;;;;;;;;;;5093434;28;20099;-74
2021/08/04 02:25:23;;;;;;;16.70;7.05;;;;;;;;;;5093089;28;20040;-74
2021/08/04 02:27:50;;;;;;;16.85;9.23;;;;;;;;;;5093215;28;20028;-75
2021/08/04 02:30:17;;;;;;;16.73;8.27;;;;;;;;;;5093362;28;20036;-74
2021/08/04 02:32:42;;;;;;;14.77;8.40;;;;;;;;;;5091774;28;20380;-74
2021/08/04 02:35:08;;;;;;;15.55;9.20;;;;;;;;;;5092931;28;20035;-74
2021/08/04 02:37:34;;;;;;;18.85;9.00;;;;;;;;;;5093063;28;20101;-74
2021/08/04 02:39:59;;;;;;;16.90;8.57;;;;;;;;;;5092265;28;20082;-75
2021/08/04 02:42:25;;;;;;;16.73;8.55;;;;;;;;;;5092664;28;20031;-74
2021/08/04 02:44:50;;;;;;;14.25;8.10;;;;;;;;;;5092943;28;20047;-74
2021/08/04 02:47:16;;;;;;;16.75;8.43;;;;;;;;;;5092954;28;20020;-74
2021/08/04 02:49:41;;;;;;;14.50;8.23;;;;;;;;;;5092789;28;20024;-74
2021/08/04 02:52:08;;;;;;;17.88;8.43;;;;;;;;;;5092839;28;20036;-75
2021/08/04 02:54:33;;;;;;;14.90;7.88;;;;;;;;;;5092883;28;20019;-74
2021/08/04 02:56:58;;;;;;;13.73;8.15;;;;;;;;;;5092817;28;20118;-74
2021/08/04 02:59:24;;;;;;;11.00;6.90;;;;;;;;;;5092671;28;20036;-74
2021/08/04 03:01:49;;;;;;;13.73;7.85;;;;;;;;;;5092813;28;20107;-74
2021/08/04 03:04:14;;;;;;;16.90;8.32;;;;;;;;;;5092626;28;20044;-74
2021/08/04 03:06:40;;;;;;;13.13;7.70;;;;;;;;;;5092977;28;20032;-74
2021/08/04 03:09:05;;;;;;;14.43;7.68;;;;;;;;;;5092745;28;20039;-75
2021/08/04 03:11:30;;;;;;;17.38;9.15;;;;;;;;;;5092669;28;20031;-74
2021/08/04 03:13:56;;;;;;;17.52;8.32;;;;;;;;;;5092010;28;20553;-74
2021/08/04 03:16:21;;;;;;;14.55;7.85;;;;;;;;;;5092241;28;20396;-74
2021/08/04 03:18:47;;;;;;;14.13;7.53;;;;;;;;;;5092119;28;20024;-74
2021/08/04 03:21:12;;;;;;;15.00;7.72;;;;;;;;;;5092420;28;20059;-74
2021/08/04 03:23:37;;;;;;;18.95;9.15;;;;;;;;;;5092461;28;20062;-74
2021/08/04 03:26:03;;;;;;;17.45;8.77;;;;;;;;;;5092746;28;20471;-74
2021/08/04 03:28:28;;;;;;;18.45;7.65;;;;;;;;;;5092199;28;20028;-74
2021/08/04 03:30:53;;;;;;;12.45;7.40;;;;;;;;;;5092555;28;20016;-75
2021/08/04 03:33:18;;;;;;;14.10;7.88;;;;;;;;;;5092580;28;20063;-74
2021/08/04 03:35:44;;;;;;;17.17;8.45;;;;;;;;;;5092384;28;20059;-75
2021/08/04 03:38:09;;;;;;;13.25;7.63;;;;;;;;;;5092353;28;20021;-74
2021/08/04 03:40:34;;;;;;;14.23;8.00;;;;;;;;;;5092426;28;20032;-74
2021/08/04 03:42:59;;;;;;;16.90;7.93;;;;;;;;;;5092305;28;20479;-74
2021/08/04 03:45:26;;;;;;;15.68;7.38;;;;;;;;;;5092480;28;20419;-74
2021/08/04 03:47:52;;;;;;;15.15;8.25;;;;;;;;;;5092349;28;20024;-74
2021/08/04 03:50:17;;;;;;;15.55;7.95;;;;;;;;;;5092171;28;20039;-74
2021/08/04 03:52:43;;;;;;;12.40;7.40;;;;;;;;;;5095232;28;20028;-74
2021/08/04 03:55:09;;;;;;;12.40;7.15;;;;;;;;;;5094665;28;20038;-74
2021/08/04 03:57:34;;;;;;;16.70;8.13;;;;;;;;;;5095913;28;20028;-75
2021/08/04 03:59:59;;;;;;;13.60;7.22;;;;;;;;;;5095766;28;20016;-74
2021/08/04 04:02:24;;;;;;;15.48;7.50;;;;;;;;;;5096211;28;20028;-75
2021/08/04 04:04:50;;;;;;;14.10;7.80;;;;;;;;;;5095702;28;20040;-74
2021/08/04 04:07:16;;;;;;;12.95;7.25;;;;;;;;;;5096110;28;20418;-75
2021/08/04 04:09:41;;;;;;;13.88;8.10;;;;;;;;;;5095430;28;20024;-74
2021/08/04 04:12:07;;;;;;;15.57;7.80;;;;;;;;;;5095851;28;20137;-74
2021/08/04 04:14:32;;;;;;;19.45;8.50;;;;;;;;;;5095524;28;20020;-74
2021/08/04 04:16:57;;;;;;;14.57;7.80;;;;;;;;;;5095718;28;20021;-74
2021/08/04 04:19:23;;;;;;;18.15;8.35;;;;;;;;;;5095869;28;20396;-74
2021/08/04 04:21:48;;;;;;;17.05;8.00;;;;;;;;;;5094940;28;20496;-75
2021/08/04 04:24:13;;;;;;;17.30;7.75;;;;;;;;;;5095747;28;20031;-75
2021/08/04 04:26:39;;;;;;;17.83;8.10;;;;;;;;;;5095695;28;20036;-75
2021/08/04 04:29:04;;;;;;;15.43;7.82;;;;;;;;;;5095388;28;20031;-75
2021/08/04 04:31:29;;;;;;;19.00;8.48;;;;;;;;;;5095304;28;20177;-74
2021/08/04 04:33:55;;;;;;;16.98;8.23;;;;;;;;;;5095267;28;20032;-75
2021/08/04 04:36:20;;;;;;;18.85;8.55;;;;;;;;;;5094761;28;20020;-75
2021/08/04 04:38:45;;;;;;;19.42;8.75;;;;;;;;;;5094950;28;20115;-74
2021/08/04 04:41:11;;;;;;;19.13;8.88;;;;;;;;;;5095161;28;20419;-75
2021/08/04 04:43:38;;;;;;;19.10;9.60;;;;;;;;;;5095140;28;20111;-74
2021/08/04 04:46:03;;;;;;;22.10;9.38;;;;;;;;;;5095249;28;20059;-74
2021/08/04 04:48:28;;;;;;;24.20;9.48;;;;;;;;;;5095024;28;20538;-75
2021/08/04 04:50:54;;;;;;;17.58;8.77;;;;;;;;;;5094222;28;20521;-75
2021/08/04 04:53:19;;;;;;;30.67;11.10;;;;;;;;;;5094769;28;20085;-75
2021/08/04 04:55:44;;;;;;;20.40;9.02;;;;;;;;;;5094899;28;20391;-74
2021/08/04 04:58:09;;;;;;;21.35;9.70;;;;;;;;;;5094865;28;20102;-74
2021/08/04 05:00:35;;;;;;;19.60;9.57;;;;;;;;;;5094862;28;20500;-74
2021/08/04 05:03:00;;;;;;;20.90;10.13;;;;;;;;;;5093954;28;20123;-74
2021/08/04 05:05:25;;;;;;;21.45;9.70;;;;;;;;;;5094119;28;20452;-74
2021/08/04 05:07:50;;;;;;;22.38;9.75;;;;;;;;;;5094649;28;20107;-74
2021/08/04 05:10:16;;;;;;;24.02;10.13;;;;;;;;;;5093718;28;20110;-74
2021/08/04 05:12:41;;;;;;;29.63;11.35;;;;;;;;;;5094560;28;20518;-74
2021/08/04 05:15:07;;;;;;;21.05;10.20;;;;;;;;;;5094408;28;20020;-74
2021/08/04 05:17:32;;;;;;;25.52;10.43;;;;;;;;;;5094468;28;20059;-74
2021/08/04 05:19:57;;;;;;;33.30;10.50;;;;;;;;;;5094092;28;20020;-74
2021/08/04 05:22:23;;;;;;;29.05;11.60;;;;;;;;;;5094105;28;20035;-74
2021/08/04 05:24:48;;;;;;;19.85;9.88;;;;;;;;;;5094207;28;20114;-74
2021/08/04 05:27:13;;;;;;;29.35;10.75;;;;;;;;;;5094817;28;20057;-74
2021/08/04 05:29:38;;;;;;;18.25;9.55;;;;;;;;;;5094338;28;20107;-74
2021/08/04 05:32:04;;;;;;;29.17;10.38;;;;;;;;;;5094474;28;20032;-74
2021/08/04 05:34:29;;;;;;;27.13;10.45;;;;;;;;;;5094181;28;20069;-74
2021/08/04 05:36:54;;;;;;;21.80;9.52;;;;;;;;;;5094198;28;20089;-74
2021/08/04 05:39:20;;;;;;;31.15;11.25;;;;;;;;;;5093740;28;20049;-74
2021/08/04 05:41:45;;;;;;;30.35;11.32;;;;;;;;;;5094337;28;20479;-74
2021/08/04 05:44:10;;;;;;;29.23;11.43;;;;;;;;;;5094238;28;20070;-74
2021/08/04 05:46:36;;;;;;;24.58;9.95;;;;;;;;;;5093619;28;20032;-74
2021/08/04 05:49:01;;;;;;;20.77;9.50;;;;;;;;;;5093794;28;20020;-75
2021/08/04 05:51:26;;;;;;;27.13;11.00;;;;;;;;;;5094272;28;20035;-74
2021/08/04 05:53:52;;;;;;;16.55;8.20;;;;;;;;;;5093630;28;20020;-75
2021/08/04 05:56:17;;;;;;;11.25;6.53;;;;;;;;;;5093556;28;20024;-74
2021/08/04 05:58:42;;;;;;;10.35;4.95;;;;;;;;;;5093584;28;20032;-75
2021/08/04 06:01:08;;;;;;;7.13;4.05;;;;;;;;;;5093583;28;20035;-75
2021/08/04 06:03:34;;;;;;;7.15;4.15;;;;;;;;;;5093122;28;20016;-75
2021/08/04 06:05:59;;;;;;;5.10;3.35;;;;;;;;;;5093979;28;20050;-75
2021/08/04 06:08:24;;;;;;;4.95;3.10;;;;;;;;;;5093656;28;20503;-75
2021/08/04 06:10:49;;;;;;;8.23;3.70;;;;;;;;;;5093466;28;20065;-75
2021/08/04 06:13:15;;;;;;;4.50;3.08;;;;;;;;;;5093280;28;20480;-75
2021/08/04 06:15:40;;;;;;;4.72;2.78;;;;;;;;;;5093200;28;20036;-75
2021/08/04 06:18:05;;;;;;;5.35;3.10;;;;;;;;;;5093401;28;20012;-75
2021/08/04 06:20:30;;;;;;;9.60;3.17;;;;;;;;;;5093271;28;20135;-75
2021/08/04 06:22:56;;;;;;;4.93;3.35;;;;;;;;;;5093765;28;20467;-75
2021/08/04 06:25:21;;;;;;;4.70;2.90;;;;;;;;;;5092939;28;20452;-76
2021/08/04 06:27:47;;;;;;;5.68;2.90;;;;;;;;;;5093402;28;20099;-75
2021/08/04 06:30:12;;;;;;;7.80;2.72;;;;;;;;;;5093128;28;20036;-75
2021/08/04 06:32:37;;;;;;;4.70;2.22;;;;;;;;;;5093197;28;20095;-75
2021/08/04 06:35:03;;;;;;;5.85;2.45;;;;;;;;;;5092848;28;20028;-75
2021/08/04 06:37:28;;;;;;;6.28;2.88;;;;;;;;;;5092742;28;20028;-77
2021/08/04 06:39:53;;;;;;;4.95;2.67;;;;;;;;;;5092849;28;20048;-75
2021/08/04 06:42:19;;;;;;;4.30;2.40;;;;;;;;;;5093022;28;20117;-75
2021/08/04 06:44:44;;;;;;;3.67;2.20;;;;;;;;;;5091394;28;20039;-75
2021/08/04 06:47:09;;;;;;;4.13;2.55;;;;;;;;;;5093289;28;20449;-75
2021/08/04 06:49:35;;;;;;;4.25;2.40;;;;;;;;;;5092344;28;20114;-76
2021/08/04 06:52:00;;;;;;;5.07;2.30;;;;;;;;;;5093039;28;20032;-75
2021/08/04 06:54:25;;;;;;;4.05;2.75;;;;;;;;;;5092407;28;20031;-76
2021/08/04 06:56:54;;;;;;;3.95;2.28;;;;;;;;;;5092772;28;20028;-75
2021/08/04 06:59:19;;;;;;;7.57;2.40;;;;;;;;;;5091461;28;20089;-75
2021/08/04 07:01:45;;;;;;;3.58;2.10;;;;;;;;;;5092924;28;20020;-76
2021/08/04 07:04:10;;;;;;;3.10;2.05;;;;;;;;;;5091693;28;20085;-75
2021/08/04 07:06:36;;;;;;;5.93;3.13;;;;;;;;;;5091956;28;20044;-77
2021/08/04 07:09:01;;;;;;;5.20;2.30;;;;;;;;;;5092259;28;20040;-77
2021/08/04 07:11:26;;;;;;;4.45;2.45;;;;;;;;;;5092773;28;20024;-76
2021/08/04 07:13:51;;;;;;;4.95;2.55;;;;;;;;;;5092558;28;20039;-75
2021/08/04 07:16:17;;;;;;;3.42;2.30;;;;;;;;;;5092698;28;20459;-77
2021/08/04 07:18:43;;;;;;;7.55;2.42;;;;;;;;;;5092583;28;20020;-75
2021/08/04 07:21:08;;;;;;;4.18;2.50;;;;;;;;;;5092149;28;20517;-76
2021/08/04 07:23:33;;;;;;;5.40;2.90;;;;;;;;;;5092625;28;20101;-77
2021/08/04 07:25:59;;;;;;;7.55;2.70;;;;;;;;;;5092264;28;20275;-76
2021/08/04 07:28:24;;;;;;;4.20;3.40;;;;;;;;;;5096514;28;20036;-76
2021/08/04 07:30:49;;;;;;;7.57;3.88;;;;;;;;;;5096687;28;20023;-77
2021/08/04 07:33:15;;;;;;;6.13;4.63;;;;;;;;;;5096793;28;20115;-76
2021/08/04 07:35:40;;;;;;;5.65;3.75;;;;;;;;;;5096057;28;20035;-76
2021/08/04 07:38:05;;;;;;;5.32;3.47;;;;;;;;;;5097017;28;20106;-73
2021/08/04 07:40:30;;;;;;;7.45;4.57;;;;;;;;;;5096202;28;20031;-74
2021/08/04 07:42:56;;;;;;;6.75;5.18;;;;;;;;;;5096484;28;20036;-74
2021/08/04 07:45:21;;;;;;;6.53;2.80;;;;;;;;;;5096444;28;20028;-74
2021/08/04 07:47:46;;;;;;;7.95;4.80;;;;;;;;;;5096375;28;20368;-73
2021/08/04 07:50:12;;;;;;;7.40;4.80;;;;;;;;;;5096317;28;20520;-76
2021/08/04 07:52:38;;;;;;;7.90;5.60;;;;;;;;;;5096297;28;20012;-76
2021/08/04 07:55:06;;;;;;;7.07;5.65;;;;;;;;;;5096339;28;20035;-75
2021/08/04 07:57:31;;;;;;;6.28;4.40;;;;;;;;;;5096305;28;20036;-76
2021/08/04 07:59:56;;;;;;;8.17;4.50;;;;;;;;;;5096286;28;20350;-76
2021/08/04 08:02:22;;;;;;;6.80;5.13;;;;;;;;;;5096262;28;20263;-76
2021/08/04 08:04:47;;;;;;;6.63;4.43;;;;;;;;;;5096068;28;20047;-76
2021/08/04 08:07:12;;;;;;;6.40;5.13;;;;;;;;;;5096280;28;20016;-76
2021/08/04 08:09:37;;;;;;;6.25;4.03;;;;;;;;;;5095806;28;20248;-76
2021/08/04 08:12:04;;;;;;;5.97;4.40;;;;;;;;;;5096075;28;20028;-76
2021/08/04 08:14:31;;;;;;;5.35;4.50;;;;;;;;;;5095996;28;20335;-76
2021/08/04 08:16:57;;;;;;;6.03;4.22;;;;;;;;;;5095575;28;20488;-77
2021/08/04 08:19:23;;;;;;;6.03;4.45;;;;;;;;;;5095784;28;20115;-77
2021/08/04 08:21:48;;;;;;;10.65;4.40;;;;;;;;;;5095721;28;20063;-76
2021/08/04 08:24:13;;;;;;;7.28;4.03;;;;;;;;;;5095626;28;20059;-76
2021/08/04 08:26:39;;;;;;;11.25;4.20;;;;;;;;;;5095792;28;20032;-74
2021/08/04 08:29:05;;;;;;;6.88;3.88;;;;;;;;;;5095732;28;20024;-75
2021/08/04 08:31:30;;;;;;;5.70;4.43;;;;;;;;;;5088158;28;20032;-77
2021/08/04 08:33:59;;;;;;;8.48;4.03;;;;;;;;;;5089395;28;20373;-78
2021/08/04 08:36:25;;;;;;;5.35;3.95;;;;;;;;;;5091176;28;20400;-77
2021/08/04 08:38:50;;;;;;;9.23;3.90;;;;;;;;;;5091645;28;20036;-80
2021/08/04 08:41:16;;;;;;;5.43;3.70;;;;;;;;;;5092056;28;20515;-77
2021/08/04 08:43:41;;;;;;;7.28;3.85;;;;;;;;;;5091614;28;20016;-77
2021/08/04 08:46:06;;;;;;;4.37;3.53;;;;;;;;;;5091885;28;20032;-78
2021/08/04 08:48:31;;;;;;;8.38;3.90;;;;;;;;;;5092726;28;20261;-78
2021/08/04 08:50:57;;;;;;;7.60;3.83;;;;;;;;;;5091656;28;20042;-81
2021/08/04 08:53:22;;;;;;;6.05;3.58;;;;;;;;;;5092310;28;20337;-78
2021/08/04 08:55:48;;;;;;;7.25;3.40;;;;;;;;;;5092075;28;20200;-77
2021/08/04 08:58:13;;;;;;;9.82;4.43;;;;;;;;;;5091885;28;20032;-78
2021/08/04 09:00:39;;;;;;;8.93;4.32;;;;;;;;;;5090903;28;20393;-77
2021/08/04 09:03:04;;;;;;;6.50;4.27;;;;;;;;;;5091823;28;20028;-78
2021/08/04 09:05:29;;;;;;;4.35;3.30;;;;;;;;;;5092311;28;20270;-78
2021/08/04 09:07:54;;;;;;;6.50;4.20;;;;;;;;;;5092176;28;20135;-78
2021/08/04 09:10:21;;;;;;;7.30;4.13;;;;;;;;;;5091754;28;20268;-77
2021/08/04 09:12:47;;;;;;;8.00;4.10;;;;;;;;;;5091607;28;20256;-78
2021/08/04 09:15:34;;;;;;;6.32;4.10;;;;;;;;;;5082986;28;20091;-77
2021/08/04 09:18:01;;;;;;;5.78;3.95;;;;;;;;;;5070931;28;20028;-77
2021/08/04 09:20:27;;;;;;;6.03;4.15;;;;;;;;;;5070626;28;20507;-78
2021/08/04 09:22:58;;;;;;;5.10;3.95;;;;;;;;;;5070759;28;20394;-77
2021/08/04 09:25:25;;;;;;;5.20;3.50;;;;;;;;;;5071068;28;20025;-78
2021/08/04 09:27:54;;;;;;;5.93;3.47;;;;;;;;;;5071027;28;20036;-77
2021/08/04 09:30:26;;;;;;;4.75;3.25;;;;;;;;;;5070969;28;20020;-78
2021/08/04 09:32:53;;;;;;;4.20;2.47;;;;;;;;;;5071219;28;20025;-77
2021/08/04 09:35:20;;;;;;;7.40;2.75;;;;;;;;;;5073749;28;20047;-80
2021/08/04 09:37:47;;;;;;;3.13;2.20;;;;;;;;;;5091781;28;20020;-77
2021/08/04 09:40:13;;;;;;;5.43;3.25;;;;;;;;;;5091134;28;20032;-79
2021/08/04 09:42:41;;;;;;;4.40;2.40;;;;;;;;;;5091360;28;20130;-78
2021/08/04 09:45:07;;;;;;;4.00;2.88;;;;;;;;;;5091051;28;20028;-77
2021/08/04 09:47:33;;;;;;;4.18;3.08;;;;;;;;;;5091243;28;20035;-77
2021/08/04 09:49:59;;;;;;;5.32;3.97;;;;;;;;;;5090714;28;20032;-78
2021/08/04 09:52:27;;;;;;;7.65;4.07;;;;;;;;;;5091538;28;20016;-77
2021/08/04 09:54:52;;;;;;;8.30;4.43;;;;;;;;;;5091178;28;20503;-78
2021/08/04 09:57:18;;;;;;;6.65;4.13;;;;;;;;;;5091237;28;20036;-78
2021/08/04 10:00:02;;;;;;;6.88;3.67;;;;;;;;;;5091194;28;20436;-77
2021/08/04 10:02:28;;;;;;;4.20;3.40;;;;;;;;;;5090953;28;20050;-80
2021/08/04 10:05:12;;;;;;;5.80;3.85;;;;;;;;;;5090455;28;20103;-78
2021/08/04 10:07:57;;;;;;;6.07;4.22;;;;;;;;;;5090805;28;20032;-78
2021/08/04 10:10:22;;;;;;;8.27;3.90;;;;;;;;;;5090283;28;20451;-78
2021/08/04 10:12:47;;;;;;;6.40;4.63;;;;;;;;;;5091112;28;20040;-78
2021/08/04 10:15:13;;;;;;;7.33;4.53;;;;;;;;;;5090645;28;20327;-77
2021/08/04 10:17:39;;;;;;;7.83;4.43;;;;;;;;;;5090449;28;20600;-81
2021/08/04 10:20:04;;;;;;;8.45;4.85;;;;;;;;;;5091158;28;20311;-77
2021/08/04 10:22:30;;;;;;;5.68;3.28;;;;;;;;;;5090263;28;20733;-78
2021/08/04 10:24:55;;;;;;;5.03;3.60;;;;;;;;;;5090470;28;20023;-78
2021/08/04 10:27:20;;;;;;;6.68;3.25;;;;;;;;;;5090322;28;20617;-78
2021/08/04 10:29:46;;;;;;;5.28;3.22;;;;;;;;;;5090453;28;20051;-77
2021/08/04 10:32:12;;;;;;;6.45;2.60;;;;;;;;;;5090747;28;20020;-77
2021/08/04 10:34:37;;;;;;;5.15;2.75;;;;;;;;;;5090073;28;20388;-77
2021/08/04 10:37:03;;;;;;;6.80;3.33;;;;;;;;;;5090316;28;20381;-78
2021/08/04 10:39:28;;;;;;;4.32;2.83;;;;;;;;;;5090386;28;20409;-78
2021/08/04 10:42:00;;;;;;;4.15;2.67;;;;;;;;;;5086769;28;20043;-77
2021/08/04 10:44:25;;;;;;;4.65;2.70;;;;;;;;;;5089620;28;20085;-77
2021/08/04 10:46:51;;;;;;;4.23;2.50;;;;;;;;;;5090722;28;20012;-78
2021/08/04 10:49:17;;;;;;;8.20;3.22;;;;;;;;;;5090417;28;20693;-77
2021/08/04 10:52:02;;;;;;;3.78;2.70;;;;;;;;;;5089617;28;20042;-77
2021/08/04 10:54:30;;;;;;;6.50;3.38;;;;;;;;;;5089010;28;20064;-77
2021/08/04 10:56:56;;;;;;;4.03;2.90;;;;;;;;;;5090366;28;20561;-77
2021/08/04 10:59:24;;;;;;;4.70;2.65;;;;;;;;;;5090132;28;20024;-77
2021/08/04 11:01:50;;;;;;;7.32;3.08;;;;;;;;;;5088751;28;20481;-77
2021/08/04 11:04:44;;;;;;;4.05;2.45;;;;;;;;;;5089410;28;20043;-76
2021/08/04 11:07:13;;;;;;;5.17;3.57;;;;;;;;;;5082435;28;20046;-77
2021/08/04 11:09:51;;;;;;;4.40;2.80;;;;;;;;;;5089792;28;20471;-76
2021/08/04 11:12:17;;;;;;;9.65;3.00;;;;;;;;;;5089533;28;20111;-77
2021/08/04 11:14:43;;;;;;;5.95;3.00;;;;;;;;;;5089733;28;20139;-77
2021/08/04 11:17:10;;;;;;;4.43;2.60;;;;;;;;;;5089769;28;20484;-76
2021/08/04 11:19:53;;;;;;;5.25;2.30;;;;;;;;;;5090171;28;20085;-76
2021/08/04 11:22:20;;;;;;;5.03;2.30;;;;;;;;;;5088857;28;20119;-76
2021/08/04 11:24:54;;;;;;;7.18;2.63;;;;;;;;;;5089463;28;20028;-76
2021/08/04 11:27:20;;;;;;;6.55;3.40;;;;;;;;;;5089776;28;20072;-76
2021/08/04 11:29:46;;;;;;;4.47;2.60;;;;;;;;;;5087709;28;20028;-76
2021/08/04 11:32:18;;;;;;;5.05;2.58;;;;;;;;;;5090317;28;20119;-78
2021/08/04 11:34:43;;;;;;;5.35;2.67;;;;;;;;;;5077574;28;20032;-76
2021/08/04 11:37:08;;;;;;;4.30;3.08;;;;;;;;;;5087892;28;20024;-77
2021/08/04 11:39:34;;;;;;;5.13;2.65;;;;;;;;;;5088989;28;20097;-78
2021/08/04 11:42:05;;;;;;;4.82;3.20;;;;;;;;;;5088220;28;20059;-76
2021/08/04 11:44:31;;;;;;;4.47;2.78;;;;;;;;;;5088041;28;20028;-77
2021/08/04 11:47:09;;;;;;;6.15;3.30;;;;;;;;;;5088418;28;20085;-75
2021/08/04 11:49:36;;;;;;;5.20;2.92;;;;;;;;;;5088625;28;20024;-76
2021/08/04 11:52:03;;;;;;;4.55;3.10;;;;;;;;;;5088703;28;20036;-76
2021/08/04 11:54:29;;;;;;;5.07;3.10;;;;;;;;;;5088829;28;20028;-76
2021/08/04 11:56:54;;;;;;;4.43;2.58;;;;;;;;;;5089929;28;20047;-75
2021/08/04 11:59:19;;;;;;;4.45;2.30;;;;;;;;;;5088953;28;20032;-75
2021/08/04 12:02:13;;;;;;;5.05;2.13;;;;;;;;;;5088592;28;20028;-76
2021/08/04 12:04:43;;;;;;;3.05;2.08;;;;;;;;;;5071163;28;20036;-75
2021/08/04 12:07:09;;;;;;;3.90;2.28;;;;;;;;;;5087374;28;20055;-75
2021/08/04 12:09:35;;;;;;;4.38;2.20;;;;;;;;;;5089135;28;20508;-75
2021/08/04 12:12:01;;;;;;;5.88;2.22;;;;;;;;;;5088526;28;20036;-75
2021/08/04 12:14:27;;;;;;;3.63;2.33;;;;;;;;;;5091950;28;20121;-76
2021/08/04 12:16:53;;;;;;;4.57;2.20;;;;;;;;;;5091647;28;20468;-75
2021/08/04 12:19:26;;;;;;;4.57;2.20;;;;;;;;;;5092270;28;20028;-75
2021/08/04 12:21:51;;;;;;;3.97;2.15;;;;;;;;;;5092242;28;20043;-75
2021/08/04 12:24:17;;;;;;;4.13;2.20;;;;;;;;;;5092073;28;20149;-76
2021/08/04 12:26:43;;;;;;;3.13;1.83;;;;;;;;;;5091741;28;20043;-78
2021/08/04 12:29:15;;;;;;;3.72;2.20;;;;;;;;;;5092768;28;20444;-75
2021/08/04 12:31:40;;;;;;;5.05;2.47;;;;;;;;;;5092919;28;20020;-77
2021/08/04 12:34:08;;;;;;;4.03;2.10;;;;;;;;;;5091756;28;20032;-75
2021/08/04 12:36:45;;;;;;;5.20;2.50;;;;;;;;;;5092873;28;20028;-75
2021/08/04 12:39:11;;;;;;;5.70;2.20;;;;;;;;;;5093243;28;20042;-75
2021/08/04 12:41:36;;;;;;;3.88;2.30;;;;;;;;;;5092322;28;20559;-75
2021/08/04 12:44:04;;;;;;;3.88;1.95;;;;;;;;;;5093058;28;20020;-75
2021/08/04 12:46:32;;;;;;;5.22;1.80;;;;;;;;;;5092576;28;20024;-75
2021/08/04 12:48:58;;;;;;;3.05;1.88;;;;;;;;;;5091500;28;20038;-75
2021/08/04 12:51:25;;;;;;;5.05;2.20;;;;;;;;;;5090793;28;20377;-75
2021/08/04 12:53:57;;;;;;;4.57;2.25;;;;;;;;;;5092770;28;20020;-75
2021/08/04 12:56:40;;;;;;;4.88;1.88;;;;;;;;;;5092521;28;20074;-75
2021/08/04 12:59:07;;;;;;;5.50;2.15;;;;;;;;;;5092010;28;20024;-75
2021/08/04 13:01:34;;;;;;;3.75;2.20;;;;;;;;;;5091874;28;20024;-76
2021/08/04 13:04:15;;;;;;;7.47;2.33;;;;;;;;;;5092097;28;20474;-74
2021/08/04 13:06:56;;;;;;;3.38;2.10;;;;;;;;;;5091663;28;20032;-75
2021/08/04 13:09:23;;;;;;;9.48;2.80;;;;;;;;;;5092152;28;20063;-75
2021/08/04 13:11:49;;;;;;;4.72;2.20;;;;;;;;;;5091930;28;20064;-74
2021/08/04 13:14:14;;;;;;;4.28;2.40;;;;;;;;;;5091546;28;20426;-75
2021/08/04 13:16:41;;;;;;;9.50;2.45;;;;;;;;;;5092438;28;20104;-74
2021/08/04 13:19:17;;;;;;;4.57;2.63;;;;;;;;;;5092416;28;20059;-74
2021/08/04 13:22:02;;;;;;;6.03;2.63;;;;;;;;;;5092029;28;20055;-75
2021/08/04 13:24:28;;;;;;;4.10;2.30;;;;;;;;;;5090895;28;20031;-74
2021/08/04 13:26:53;;;;;;;4.43;2.25;;;;;;;;;;5091411;28;20028;-74
2021/08/04 13:29:29;;;;;;;5.05;2.42;;;;;;;;;;5091325;28;20024;-74
2021/08/04 13:31:54;;;;;;;7.93;2.67;;;;;;;;;;5091659;28;20028;-74
2021/08/04 13:34:19;;;;;;;4.43;2.65;;;;;;;;;;5091397;28;20038;-76
2021/08/04 13:36:45;;;;;;;6.32;3.45;;;;;;;;;;5091077;28;20019;-75
2021/08/04 13:39:11;;;;;;;4.57;2.25;;;;;;;;;;5092246;28;20078;-74
2021/08/04 13:41:36;;;;;;;3.35;2.28;;;;;;;;;;5091233;28;20032;-74
2021/08/04 13:44:01;;;;;;;6.13;2.60;;;;;;;;;;5091247;28;20058;-75
2021/08/04 13:46:27;;;;;;;5.97;2.58;;;;;;;;;;5090566;28;20027;-74
2021/08/04 13:48:52;;;;;;;5.72;2.78;;;;;;;;;;5091839;28;20115;-74
2021/08/04 13:51:17;;;;;;;5.50;2.38;;;;;;;;;;5091780;28;20059;-74
2021/08/04 13:53:43;;;;;;;4.13;2.60;;;;;;;;;;5090784;28;20380;-74
2021/08/04 13:56:08;;;;;;;6.65;2.85;;;;;;;;;;5090858;28;20361;-74
2021/08/04 13:58:33;;;;;;;3.45;2.47;;;;;;;;;;5091409;28;20456;-74
2021/08/04 14:00:59;;;;;;;4.30;2.90;;;;;;;;;;5091039;28;20027;-74
2021/08/04 14:03:24;;;;;;;5.05;2.40;;;;;;;;;;5091596;28;20039;-74
2021/08/04 14:05:49;;;;;;;5.25;2.75;;;;;;;;;;5090369;28;20407;-73
2021/08/04 14:08:15;;;;;;;4.38;3.20;;;;;;;;;;5091252;28;20218;-74
2021/08/04 14:10:41;;;;;;;4.90;3.00;;;;;;;;;;5090949;28;20392;-74
2021/08/04 14:13:07;;;;;;;5.28;2.95;;;;;;;;;;5091058;28;20020;-73
2021/08/04 14:15:33;;;;;;;5.00;2.60;;;;;;;;;;5090582;28;20397;-74
2021/08/04 14:17:58;;;;;;;6.22;2.47;;;;;;;;;;5091116;28;20038;-74
2021/08/04 14:20:24;;;;;;;5.97;3.25;;;;;;;;;;5090351;28;20458;-76
2021/08/04 14:22:49;;;;;;;13.30;3.38;;;;;;;;;;5090890;28;20028;-74
2021/08/04 14:25:15;;;;;;;4.03;2.90;;;;;;;;;;5090374;28;20035;-74
2021/08/04 14:27:40;;;;;;;5.72;3.65;;;;;;;;;;5090864;28;20375;-74
2021/08/04 14:30:07;;;;;;;5.72;3.30;;;;;;;;;;5091167;28;20032;-74
2021/08/04 14:32:32;;;;;;;7.75;3.10;;;;;;;;;;5091263;28;20112;-74
2021/08/04 14:34:58;;;;;;;6.90;2.97;;;;;;;;;;5090215;28;20118;-75